sensor_id;sensor_type;location;lat;lon;timestamp;pressure;altitude;pressure_sealevel;temperature;humidity
53874;BME280;62246;50.938;4.058;2022-08-03T00:02:10;101631.97;;;19.40;76.28
53874;BME280;62246;50.938;4.058;2022-08-03T00:04:36;101629.75;;;19.36;76.38
53874;BME280;62246;50.938;4.058;2022-08-03T00:07:01;101626.84;;;19.29;76.58
53874;BME280;62246;50.938;4.058;2022-08-03T00:09:27;101620.63;;;19.28;76.46
53874;BME280;62246;50.938;4.058;2022-08-03T00:11:52;101626.91;;;19.19;77.17
53874;BME280;62246;50.938;4.058;2022-08-03T00:14:17;101622.00;;;19.14;76.95
53874;BME280;62246;50.938;4.058;2022-08-03T00:16:43;101624.81;;;19.13;76.96
53874;BME280;62246;50.938;4.058;2022-08-03T00:19:08;101623.44;;;19.09;76.94
53874;BME280;62246;50.938;4.058;2022-08-03T00:21:34;101622.91;;;19.05;77.46
53874;BME280;62246;50.938;4.058;2022-08-03T00:23:59;101618.00;;;19.01;77.13
53874;BME280;62246;50.938;4.058;2022-08-03T00:26:24;101615.47;;;18.99;77.41
53874;BME280;62246;50.938;4.058;2022-08-03T00:28:50;101621.44;;;18.93;77.40
53874;BME280;62246;50.938;4.058;2022-08-03T00:31:15;101625.69;;;18.86;77.73
53874;BME280;62246;50.938;4.058;2022-08-03T00:33:41;101623.00;;;18.86;77.88
53874;BME280;62246;50.938;4.058;2022-08-03T00:36:06;101618.94;;;18.81;78.21
53874;BME280;62246;50.938;4.058;2022-08-03T00:38:32;101613.34;;;18.75;78.26
53874;BME280;62246;50.938;4.058;2022-08-03T00:40:57;101615.63;;;18.70;78.84
53874;BME280;62246;50.938;4.058;2022-08-03T00:43:24;101612.69;;;18.63;79.03
53874;BME280;62246;50.938;4.058;2022-08-03T00:45:51;101607.59;;;18.60;78.90
53874;BME280;62246;50.938;4.058;2022-08-03T00:48:16;101610.16;;;18.61;78.95
53874;BME280;62246;50.938;4.058;2022-08-03T00:50:42;101607.34;;;18.63;78.69
53874;BME280;62246;50.938;4.058;2022-08-03T00:53:10;101609.28;;;18.71;78.51
53874;BME280;62246;50.938;4.058;2022-08-03T00:55:39;101605.78;;;18.60;78.65
53874;BME280;62246;50.938;4.058;2022-08-03T00:58:06;101601.81;;;18.64;78.71
53874;BME280;62246;50.938;4.058;2022-08-03T01:00:35;101597.75;;;18.60;78.63
53874;BME280;62246;50.938;4.058;2022-08-03T01:03:03;101595.09;;;18.51;79.37
53874;BME280;62246;50.938;4.058;2022-08-03T01:05:30;101591.03;;;18.46;79.00
53874;BME280;62246;50.938;4.058;2022-08-03T01:10:57;101591.91;;;18.37;79.90
53874;BME280;62246;50.938;4.058;2022-08-03T01:13:30;101588.09;;;18.40;79.69
53874;BME280;62246;50.938;4.058;2022-08-03T01:16:05;101586.97;;;18.42;79.80
53874;BME280;62246;50.938;4.058;2022-08-03T01:18:40;101588.50;;;18.45;79.35
53874;BME280;62246;50.938;4.058;2022-08-03T01:21:12;101594.16;;;18.42;79.73
53874;BME280;62246;50.938;4.058;2022-08-03T01:32:06;101580.44;;;18.17;80.52
53874;BME280;62246;50.938;4.058;2022-08-03T01:34:44;101572.72;;;18.14;80.97
53874;BME280;62246;50.938;4.058;2022-08-03T01:37:11;101579.19;;;18.11;80.56
53874;BME280;62246;50.938;4.058;2022-08-03T01:39:41;101576.66;;;18.10;80.86
53874;BME280;62246;50.938;4.058;2022-08-03T01:42:10;101576.38;;;18.13;80.43
53874;BME280;62246;50.938;4.058;2022-08-03T01:44:40;101577.81;;;18.07;80.69
53874;BME280;62246;50.938;4.058;2022-08-03T01:47:06;101575.66;;;18.11;80.58
53874;BME280;62246;50.938;4.058;2022-08-03T01:49:37;101576.63;;;18.20;80.17
53874;BME280;62246;50.938;4.058;2022-08-03T01:52:04;101581.31;;;18.08;80.71
53874;BME280;62246;50.938;4.058;2022-08-03T01:54:35;101574.25;;;18.07;80.58
53874;BME280;62246;50.938;4.058;2022-08-03T01:57:02;101570.03;;;18.04;80.72
53874;BME280;62246;50.938;4.058;2022-08-03T01:59:29;101573.16;;;17.90;81.52
53874;BME280;62246;50.938;4.058;2022-08-03T02:01:56;101567.69;;;17.81;81.94
53874;BME280;62246;50.938;4.058;2022-08-03T02:04:24;101573.03;;;17.81;82.41
53874;BME280;62246;50.938;4.058;2022-08-03T02:06:53;101570.94;;;17.75;82.23
53874;BME280;62246;50.938;4.058;2022-08-03T02:09:20;101568.25;;;17.95;81.08
53874;BME280;62246;50.938;4.058;2022-08-03T02:11:46;101563.88;;;17.84;81.87
53874;BME280;62246;50.938;4.058;2022-08-03T02:14:13;101566.56;;;17.84;81.74
53874;BME280;62246;50.938;4.058;2022-08-03T02:16:42;101566.75;;;17.73;82.06
53874;BME280;62246;50.938;4.058;2022-08-03T02:19:10;101568.28;;;17.65;82.66
53874;BME280;62246;50.938;4.058;2022-08-03T02:21:36;101560.53;;;17.72;82.31
53874;BME280;62246;50.938;4.058;2022-08-03T02:24:03;101565.59;;;17.65;82.60
53874;BME280;62246;50.938;4.058;2022-08-03T02:26:29;101566.63;;;17.55;83.28
53874;BME280;62246;50.938;4.058;2022-08-03T02:28:57;101569.84;;;17.48;83.69
53874;BME280;62246;50.938;4.058;2022-08-03T02:31:27;101560.44;;;17.44;84.10
53874;BME280;62246;50.938;4.058;2022-08-03T02:33:58;101556.78;;;17.45;83.89
53874;BME280;62246;50.938;4.058;2022-08-03T02:36:27;101554.38;;;17.52;83.55
53874;BME280;62246;50.938;4.058;2022-08-03T02:38:58;101547.03;;;17.54;83.06
53874;BME280;62246;50.938;4.058;2022-08-03T02:41:28;101556.91;;;17.54;83.33
53874;BME280;62246;50.938;4.058;2022-08-03T02:43:56;101554.22;;;17.54;83.24
53874;BME280;62246;50.938;4.058;2022-08-03T02:46:30;101559.88;;;17.41;83.79
53874;BME280;62246;50.938;4.058;2022-08-03T02:48:58;101552.00;;;17.29;84.60
53874;BME280;62246;50.938;4.058;2022-08-03T02:51:25;101548.19;;;17.32;84.09
53874;BME280;62246;50.938;4.058;2022-08-03T02:53:54;101551.56;;;17.24;84.87
53874;BME280;62246;50.938;4.058;2022-08-03T02:56:21;101555.94;;;17.25;84.39
53874;BME280;62246;50.938;4.058;2022-08-03T02:58:48;101550.72;;;17.34;84.07
53874;BME280;62246;50.938;4.058;2022-08-03T03:01:14;101549.59;;;17.36;84.12
53874;BME280;62246;50.938;4.058;2022-08-03T03:03:41;101546.91;;;17.36;84.42
53874;BME280;62246;50.938;4.058;2022-08-03T03:06:07;101543.09;;;17.29;84.08
53874;BME280;62246;50.938;4.058;2022-08-03T03:08:33;101548.91;;;17.24;84.24
53874;BME280;62246;50.938;4.058;2022-08-03T03:11:00;101540.31;;;17.21;84.49
53874;BME280;62246;50.938;4.058;2022-08-03T03:13:28;101542.56;;;17.15;84.96
53874;BME280;62246;50.938;4.058;2022-08-03T03:15:56;101543.41;;;17.16;84.66
53874;BME280;62246;50.938;4.058;2022-08-03T03:18:24;101550.31;;;17.09;85.19
53874;BME280;62246;50.938;4.058;2022-08-03T03:20:51;101547.47;;;17.10;85.23
53874;BME280;62246;50.938;4.058;2022-08-03T03:23:19;101547.38;;;17.12;85.11
53874;BME280;62246;50.938;4.058;2022-08-03T03:25:46;101543.81;;;17.11;85.11
53874;BME280;62246;50.938;4.058;2022-08-03T03:28:12;101544.69;;;17.12;84.45
53874;BME280;62246;50.938;4.058;2022-08-03T03:30:37;101541.28;;;17.10;84.92
53874;BME280;62246;50.938;4.058;2022-08-03T03:33:03;101543.41;;;17.06;85.12
53874;BME280;62246;50.938;4.058;2022-08-03T03:35:28;101538.19;;;17.05;85.53
53874;BME280;62246;50.938;4.058;2022-08-03T03:37:54;101537.66;;;17.11;84.96
53874;BME280;62246;50.938;4.058;2022-08-03T03:40:20;101545.38;;;17.14;84.66
53874;BME280;62246;50.938;4.058;2022-08-03T03:42:46;101548.47;;;16.99;85.44
53874;BME280;62246;50.938;4.058;2022-08-03T03:45:12;101545.38;;;16.94;85.44
53874;BME280;62246;50.938;4.058;2022-08-03T03:47:38;101550.84;;;16.93;85.04
53874;BME280;62246;50.938;4.058;2022-08-03T03:50:04;101545.78;;;16.90;85.40
53874;BME280;62246;50.938;4.058;2022-08-03T03:52:31;101537.72;;;16.80;85.88
53874;BME280;62246;50.938;4.058;2022-08-03T03:54:56;101545.72;;;16.80;85.95
53874;BME280;62246;50.938;4.058;2022-08-03T03:57:22;101554.19;;;16.75;86.70
53874;BME280;62246;50.938;4.058;2022-08-03T03:59:47;101549.13;;;16.72;86.65
53874;BME280;62246;50.938;4.058;2022-08-03T04:02:13;101546.03;;;16.67;86.79
53874;BME280;62246;50.938;4.058;2022-08-03T04:04:39;101550.09;;;16.71;86.63
53874;BME280;62246;50.938;4.058;2022-08-03T04:07:25;101554.47;;;16.72;86.47
53874;BME280;62246;50.938;4.058;2022-08-03T04:10:15;101551.66;;;16.74;86.32
53874;BME280;62246;50.938;4.058;2022-08-03T04:13:01;101555.44;;;16.71;86.43
53874;BME280;62246;50.938;4.058;2022-08-03T04:15:30;101547.28;;;16.63;86.77
53874;BME280;62246;50.938;4.058;2022-08-03T04:17:57;101557.84;;;16.64;86.42
53874;BME280;62246;50.938;4.058;2022-08-03T04:20:27;101553.84;;;16.59;86.76
53874;BME280;62246;50.938;4.058;2022-08-03T04:22:55;101550.63;;;16.55;86.67
53874;BME280;62246;50.938;4.058;2022-08-03T04:25:26;101555.25;;;16.53;87.11
53874;BME280;62246;50.938;4.058;2022-08-03T04:27:52;101560.75;;;16.61;86.89
53874;BME280;62246;50.938;4.058;2022-08-03T04:30:20;101552.59;;;16.53;86.78
53874;BME280;62246;50.938;4.058;2022-08-03T04:32:47;101555.41;;;16.61;86.87
53874;BME280;62246;50.938;4.058;2022-08-03T04:35:17;101560.22;;;16.58;87.17
53874;BME280;62246;50.938;4.058;2022-08-03T04:37:45;101556.66;;;16.57;87.18
53874;BME280;62246;50.938;4.058;2022-08-03T04:40:27;101552.31;;;16.56;86.92
53874;BME280;62246;50.938;4.058;2022-08-03T04:42:55;101558.94;;;16.62;86.91
53874;BME280;62246;50.938;4.058;2022-08-03T04:45:21;101566.28;;;16.70;86.58
53874;BME280;62246;50.938;4.058;2022-08-03T04:47:47;101564.16;;;16.73;86.60
53874;BME280;62246;50.938;4.058;2022-08-03T04:50:14;101563.91;;;16.76;86.16
53874;BME280;62246;50.938;4.058;2022-08-03T04:52:40;101566.84;;;16.73;86.53
53874;BME280;62246;50.938;4.058;2022-08-03T04:55:06;101573.03;;;16.74;86.35
53874;BME280;62246;50.938;4.058;2022-08-03T04:57:31;101572.31;;;16.72;86.55
53874;BME280;62246;50.938;4.058;2022-08-03T04:59:57;101577.72;;;16.81;86.87
53874;BME280;62246;50.938;4.058;2022-08-03T05:02:22;101572.47;;;16.80;86.76
53874;BME280;62246;50.938;4.058;2022-08-03T05:04:48;101578.03;;;16.98;86.19
53874;BME280;62246;50.938;4.058;2022-08-03T05:07:15;101580.84;;;16.96;85.71
53874;BME280;62246;50.938;4.058;2022-08-03T05:09:42;101579.28;;;17.04;85.64
53874;BME280;62246;50.938;4.058;2022-08-03T05:12:08;101575.94;;;17.11;85.45
53874;BME280;62246;50.938;4.058;2022-08-03T05:14:34;101583.25;;;17.09;85.44
53874;BME280;62246;50.938;4.058;2022-08-03T05:17:05;101584.53;;;17.15;85.71
53874;BME280;62246;50.938;4.058;2022-08-03T05:19:31;101577.75;;;17.21;85.56
53874;BME280;62246;50.938;4.058;2022-08-03T05:22:00;101585.38;;;17.25;85.31
53874;BME280;62246;50.938;4.058;2022-08-03T05:24:25;101585.25;;;17.27;85.43
53874;BME280;62246;50.938;4.058;2022-08-03T05:26:51;101588.31;;;17.42;84.99
53874;BME280;62246;50.938;4.058;2022-08-03T05:29:16;101589.72;;;17.46;84.91
53874;BME280;62246;50.938;4.058;2022-08-03T05:31:42;101586.50;;;17.52;84.80
53874;BME280;62246;50.938;4.058;2022-08-03T05:34:07;101587.31;;;17.62;84.75
53874;BME280;62246;50.938;4.058;2022-08-03T05:36:33;101594.91;;;17.67;84.69
53874;BME280;62246;50.938;4.058;2022-08-03T05:38:58;101596.00;;;17.84;83.71
53874;BME280;62246;50.938;4.058;2022-08-03T05:41:24;101598.56;;;17.95;83.44
53874;BME280;62246;50.938;4.058;2022-08-03T05:43:53;101598.13;;;18.00;83.77
53874;BME280;62246;50.938;4.058;2022-08-03T05:46:19;101595.44;;;18.10;82.76
53874;BME280;62246;50.938;4.058;2022-08-03T05:48:45;101598.91;;;18.20;82.03
53874;BME280;62246;50.938;4.058;2022-08-03T05:51:10;101595.75;;;18.35;81.74
53874;BME280;62246;50.938;4.058;2022-08-03T05:53:36;101590.88;;;18.48;81.39
53874;BME280;62246;50.938;4.058;2022-08-03T05:56:02;101598.72;;;18.59;80.97
53874;BME280;62246;50.938;4.058;2022-08-03T05:58:28;101586.88;;;18.62;80.70
53874;BME280;62246;50.938;4.058;2022-08-03T06:00:53;101593.53;;;18.76;80.28
53874;BME280;62246;50.938;4.058;2022-08-03T06:03:19;101592.63;;;18.85;79.88
53874;BME280;62246;50.938;4.058;2022-08-03T06:05:44;101603.03;;;18.98;79.58
53874;BME280;62246;50.938;4.058;2022-08-03T06:08:10;101601.13;;;19.08;79.21
53874;BME280;62246;50.938;4.058;2022-08-03T06:10:35;101590.63;;;19.15;79.05
53874;BME280;62246;50.938;4.058;2022-08-03T06:13:01;101600.59;;;19.23;78.94
53874;BME280;62246;50.938;4.058;2022-08-03T06:15:26;101598.47;;;19.26;78.63
53874;BME280;62246;50.938;4.058;2022-08-03T06:17:51;101609.59;;;19.31;78.29
53874;BME280;62246;50.938;4.058;2022-08-03T06:20:19;101600.06;;;19.37;78.33
53874;BME280;62246;50.938;4.058;2022-08-03T06:22:45;101601.97;;;19.45;78.04
53874;BME280;62246;50.938;4.058;2022-08-03T06:25:11;101616.13;;;19.55;77.74
53874;BME280;62246;50.938;4.058;2022-08-03T06:27:37;101615.06;;;19.66;77.59
53874;BME280;62246;50.938;4.058;2022-08-03T06:30:08;101612.91;;;19.70;76.93
53874;BME280;62246;50.938;4.058;2022-08-03T06:32:38;101610.13;;;19.79;76.93
53874;BME280;62246;50.938;4.058;2022-08-03T06:35:06;101620.44;;;19.84;76.67
53874;BME280;62246;50.938;4.058;2022-08-03T06:37:44;101620.34;;;19.94;76.46
53874;BME280;62246;50.938;4.058;2022-08-03T06:40:15;101623.69;;;19.96;75.57
53874;BME280;62246;50.938;4.058;2022-08-03T06:42:41;101623.75;;;20.04;75.75
53874;BME280;62246;50.938;4.058;2022-08-03T06:45:07;101615.91;;;20.11;75.35
53874;BME280;62246;50.938;4.058;2022-08-03T06:47:35;101629.41;;;20.19;74.97
53874;BME280;62246;50.938;4.058;2022-08-03T06:50:00;101629.78;;;20.24;74.68
53874;BME280;62246;50.938;4.058;2022-08-03T06:52:26;101626.25;;;20.32;74.02
53874;BME280;62246;50.938;4.058;2022-08-03T06:54:51;101631.19;;;20.45;74.37
53874;BME280;62246;50.938;4.058;2022-08-03T06:57:17;101626.34;;;20.48;73.62
53874;BME280;62246;50.938;4.058;2022-08-03T06:59:43;101631.28;;;20.61;73.56
53874;BME280;62246;50.938;4.058;2022-08-03T07:02:08;101623.94;;;20.72;73.13
53874;BME280;62246;50.938;4.058;2022-08-03T07:04:34;101626.16;;;20.85;72.45
53874;BME280;62246;50.938;4.058;2022-08-03T07:07:00;101630.75;;;21.01;71.91
53874;BME280;62246;50.938;4.058;2022-08-03T07:09:26;101627.41;;;21.15;71.74
53874;BME280;62246;50.938;4.058;2022-08-03T07:11:51;101622.72;;;21.17;71.11
53874;BME280;62246;50.938;4.058;2022-08-03T07:14:16;101624.75;;;21.32;70.54
53874;BME280;62246;50.938;4.058;2022-08-03T07:16:42;101625.09;;;21.37;70.35
53874;BME280;62246;50.938;4.058;2022-08-03T07:19:07;101627.63;;;21.38;69.75
53874;BME280;62246;50.938;4.058;2022-08-03T07:21:33;101631.66;;;21.42;70.10
53874;BME280;62246;50.938;4.058;2022-08-03T07:23:58;101626.63;;;21.56;70.03
53874;BME280;62246;50.938;4.058;2022-08-03T07:26:23;101624.78;;;21.65;69.65
53874;BME280;62246;50.938;4.058;2022-08-03T07:28:49;101626.31;;;21.67;69.47
53874;BME280;62246;50.938;4.058;2022-08-03T07:31:14;101629.50;;;21.79;69.33
53874;BME280;62246;50.938;4.058;2022-08-03T07:33:40;101629.97;;;21.83;69.06
53874;BME280;62246;50.938;4.058;2022-08-03T07:36:05;101623.75;;;21.82;68.77
53874;BME280;62246;50.938;4.058;2022-08-03T07:38:31;101622.22;;;21.96;67.86
53874;BME280;62246;50.938;4.058;2022-08-03T07:40:56;101626.72;;;22.12;67.79
53874;BME280;62246;50.938;4.058;2022-08-03T07:43:21;101629.94;;;22.16;67.56
53874;BME280;62246;50.938;4.058;2022-08-03T07:45:48;101629.22;;;22.30;67.24
53874;BME280;62246;50.938;4.058;2022-08-03T07:48:13;101623.50;;;22.25;66.70
53874;BME280;62246;50.938;4.058;2022-08-03T07:50:39;101627.38;;;22.39;66.37
53874;BME280;62246;50.938;4.058;2022-08-03T07:53:04;101620.06;;;22.56;65.49
53874;BME280;62246;50.938;4.058;2022-08-03T07:55:30;101633.22;;;22.51;64.67
53874;BME280;62246;50.938;4.058;2022-08-03T07:58:10;101622.22;;;22.60;64.76
53874;BME280;62246;50.938;4.058;2022-08-03T08:00:43;101623.03;;;22.61;64.62
53874;BME280;62246;50.938;4.058;2022-08-03T08:03:11;101623.84;;;22.70;64.95
53874;BME280;62246;50.938;4.058;2022-08-03T08:05:38;101620.28;;;22.77;64.19
53874;BME280;62246;50.938;4.058;2022-08-03T08:08:04;101618.59;;;22.76;64.63
53874;BME280;62246;50.938;4.058;2022-08-03T08:10:29;101621.53;;;22.90;64.18
53874;BME280;62246;50.938;4.058;2022-08-03T08:12:57;101616.28;;;22.96;64.19
53874;BME280;62246;50.938;4.058;2022-08-03T08:15:22;101621.53;;;22.98;64.43
53874;BME280;62246;50.938;4.058;2022-08-03T08:17:50;101615.88;;;23.08;63.35
53874;BME280;62246;50.938;4.058;2022-08-03T08:20:25;101615.75;;;23.33;61.96
53874;BME280;62246;50.938;4.058;2022-08-03T08:22:51;101615.00;;;23.39;61.89
53874;BME280;62246;50.938;4.058;2022-08-03T08:25:17;101621.72;;;23.43;62.55
53874;BME280;62246;50.938;4.058;2022-08-03T08:27:45;101627.50;;;23.40;62.54
53874;BME280;62246;50.938;4.058;2022-08-03T08:30:11;101621.19;;;23.48;62.65
53874;BME280;62246;50.938;4.058;2022-08-03T08:32:40;101622.56;;;23.43;62.23
53874;BME280;62246;50.938;4.058;2022-08-03T08:35:06;101619.19;;;23.41;62.52
53874;BME280;62246;50.938;4.058;2022-08-03T08:37:32;101621.66;;;23.51;62.64
53874;BME280;62246;50.938;4.058;2022-08-03T08:39:58;101623.91;;;23.62;62.48
53874;BME280;62246;50.938;4.058;2022-08-03T08:42:24;101622.78;;;23.80;61.78
53874;BME280;62246;50.938;4.058;2022-08-03T08:44:50;101625.19;;;23.75;61.92
53874;BME280;62246;50.938;4.058;2022-08-03T08:47:18;101616.41;;;23.73;61.99
53874;BME280;62246;50.938;4.058;2022-08-03T08:49:43;101618.63;;;23.92;60.12
53874;BME280;62246;50.938;4.058;2022-08-03T08:52:12;101615.63;;;24.02;60.30
53874;BME280;62246;50.938;4.058;2022-08-03T08:54:40;101621.50;;;24.06;60.52
53874;BME280;62246;50.938;4.058;2022-08-03T08:57:06;101610.13;;;24.10;60.15
53874;BME280;62246;50.938;4.058;2022-08-03T08:59:33;101616.56;;;24.24;59.99
53874;BME280;62246;50.938;4.058;2022-08-03T09:01:59;101614.53;;;24.26;60.11
53874;BME280;62246;50.938;4.058;2022-08-03T09:04:26;101613.66;;;24.41;59.21
53874;BME280;62246;50.938;4.058;2022-08-03T09:06:52;101617.09;;;24.65;58.57
53874;BME280;62246;50.938;4.058;2022-08-03T09:09:17;101614.03;;;24.68;58.11
53874;BME280;62246;50.938;4.058;2022-08-03T09:11:43;101612.34;;;24.67;57.66
53874;BME280;62246;50.938;4.058;2022-08-03T09:14:09;101610.47;;;24.82;55.90
53874;BME280;62246;50.938;4.058;2022-08-03T09:16:35;101616.09;;;25.02;55.82
53874;BME280;62246;50.938;4.058;2022-08-03T09:19:12;101608.22;;;25.07;55.30
53874;BME280;62246;50.938;4.058;2022-08-03T09:21:38;101611.13;;;25.06;55.60
53874;BME280;62246;50.938;4.058;2022-08-03T09:24:05;101617.09;;;25.23;56.13
53874;BME280;62246;50.938;4.058;2022-08-03T09:26:33;101610.81;;;25.16;55.39
53874;BME280;62246;50.938;4.058;2022-08-03T09:29:00;101607.91;;;25.17;54.86
53874;BME280;62246;50.938;4.058;2022-08-03T09:31:34;101599.41;;;25.42;54.24
53874;BME280;62246;50.938;4.058;2022-08-03T09:34:08;101605.69;;;25.49;53.75
53874;BME280;62246;50.938;4.058;2022-08-03T09:36:35;101601.63;;;25.60;52.31
53874;BME280;62246;50.938;4.058;2022-08-03T09:39:03;101598.41;;;25.78;52.23
53874;BME280;62246;50.938;4.058;2022-08-03T09:41:32;101600.63;;;25.96;52.01
53874;BME280;62246;50.938;4.058;2022-08-03T09:43:58;101599.00;;;26.02;51.36
53874;BME280;62246;50.938;4.058;2022-08-03T09:46:24;101606.31;;;26.01;51.67
53874;BME280;62246;50.938;4.058;2022-08-03T09:48:49;101600.59;;;26.24;51.72
53874;BME280;62246;50.938;4.058;2022-08-03T09:51:15;101600.22;;;25.99;51.37
53874;BME280;62246;50.938;4.058;2022-08-03T09:53:43;101604.97;;;26.19;51.52
53874;BME280;62246;50.938;4.058;2022-08-03T09:56:09;101602.38;;;26.46;50.93
53874;BME280;62246;50.938;4.058;2022-08-03T09:58:44;101602.22;;;26.60;50.70
53874;BME280;62246;50.938;4.058;2022-08-03T10:01:10;101586.75;;;26.54;49.98
53874;BME280;62246;50.938;4.058;2022-08-03T10:03:38;101587.22;;;26.65;49.99
53874;BME280;62246;50.938;4.058;2022-08-03T10:06:18;101586.16;;;26.66;50.03
53874;BME280;62246;50.938;4.058;2022-08-03T10:08:44;101589.34;;;26.76;49.95
53874;BME280;62246;50.938;4.058;2022-08-03T10:11:10;101579.59;;;26.95;49.97
53874;BME280;62246;50.938;4.058;2022-08-03T10:13:36;101580.88;;;27.13;49.65
53874;BME280;62246;50.938;4.058;2022-08-03T10:16:03;101578.56;;;27.16;49.25
53874;BME280;62246;50.938;4.058;2022-08-03T10:18:30;101581.50;;;27.28;49.54
53874;BME280;62246;50.938;4.058;2022-08-03T10:21:03;101580.44;;;27.36;48.10
53874;BME280;62246;50.938;4.058;2022-08-03T10:23:36;101580.91;;;27.46;48.41
53874;BME280;62246;50.938;4.058;2022-08-03T10:26:06;101577.75;;;27.49;48.66
53874;BME280;62246;50.938;4.058;2022-08-03T10:28:39;101582.34;;;27.55;49.10
53874;BME280;62246;50.938;4.058;2022-08-03T10:31:05;101578.81;;;27.48;47.70
53874;BME280;62246;50.938;4.058;2022-08-03T10:33:36;101585.06;;;27.55;47.44
53874;BME280;62246;50.938;4.058;2022-08-03T10:36:05;101575.22;;;27.88;47.02
53874;BME280;62246;50.938;4.058;2022-08-03T10:38:56;101575.19;;;27.95;47.29
53874;BME280;62246;50.938;4.058;2022-08-03T10:41:30;101579.78;;;27.94;47.67
53874;BME280;62246;50.938;4.058;2022-08-03T10:44:09;101571.00;;;28.05;47.11
53874;BME280;62246;50.938;4.058;2022-08-03T10:46:38;101573.25;;;28.15;47.02
53874;BME280;62246;50.938;4.058;2022-08-03T10:49:04;101568.41;;;28.24;46.58
53874;BME280;62246;50.938;4.058;2022-08-03T10:51:31;101565.38;;;28.46;46.82
53874;BME280;62246;50.938;4.058;2022-08-03T10:53:58;101563.44;;;28.14;46.10
53874;BME280;62246;50.938;4.058;2022-08-03T11:01:52;101548.94;;;29.04;45.58
53874;BME280;62246;50.938;4.058;2022-08-03T11:04:19;101545.28;;;29.17;44.57
53874;BME280;62246;50.938;4.058;2022-08-03T11:06:46;101536.38;;;29.29;43.27
53874;BME280;62246;50.938;4.058;2022-08-03T11:11:42;101533.88;;;29.71;43.00
53874;BME280;62246;50.938;4.058;2022-08-03T11:14:16;101533.75;;;29.40;42.39
53874;BME280;62246;50.938;4.058;2022-08-03T11:16:45;101529.75;;;29.43;43.41
53874;BME280;62246;50.938;4.058;2022-08-03T11:19:14;101532.88;;;29.65;42.61
53874;BME280;62246;50.938;4.058;2022-08-03T11:40:44;101525.69;;;30.08;40.39
53874;BME280;62246;50.938;4.058;2022-08-03T11:46:10;101520.03;;;31.24;39.71
53874;BME280;62246;50.938;4.058;2022-08-03T11:48:43;101512.56;;;31.44;38.61
53874;BME280;62246;50.938;4.058;2022-08-03T11:51:21;101517.66;;;31.16;38.53
53874;BME280;62246;50.938;4.058;2022-08-03T11:53:58;101517.28;;;31.13;38.39
53874;BME280;62246;50.938;4.058;2022-08-03T11:56:25;101520.28;;;31.11;38.07
53874;BME280;62246;50.938;4.058;2022-08-03T11:58:53;101511.44;;;31.80;37.87
53874;BME280;62246;50.938;4.058;2022-08-03T12:01:21;101516.94;;;31.45;37.57
53874;BME280;62246;50.938;4.058;2022-08-03T12:03:47;101512.94;;;32.00;36.88
53874;BME280;62246;50.938;4.058;2022-08-03T12:06:15;101511.66;;;31.90;37.29
53874;BME280;62246;50.938;4.058;2022-08-03T12:08:41;101516.78;;;31.87;37.12
53874;BME280;62246;50.938;4.058;2022-08-03T12:11:12;101510.84;;;31.90;36.41
53874;BME280;62246;50.938;4.058;2022-08-03T12:13:48;101521.38;;;32.51;36.47
53874;BME280;62246;50.938;4.058;2022-08-03T12:16:20;101529.19;;;32.59;35.66
53874;BME280;62246;50.938;4.058;2022-08-03T12:19:00;101511.63;;;33.79;34.00
53874;BME280;62246;50.938;4.058;2022-08-03T12:21:26;101519.00;;;32.88;34.85
53874;BME280;62246;50.938;4.058;2022-08-03T12:24:00;101519.19;;;32.82;34.88
53874;BME280;62246;50.938;4.058;2022-08-03T12:26:26;101516.41;;;33.72;33.61
53874;BME280;62246;50.938;4.058;2022-08-03T12:28:52;101510.13;;;33.71;32.94
53874;BME280;62246;50.938;4.058;2022-08-03T12:31:17;101501.63;;;34.72;32.46
53874;BME280;62246;50.938;4.058;2022-08-03T12:34:03;101509.91;;;33.56;33.46
53874;BME280;62246;50.938;4.058;2022-08-03T12:36:33;101508.44;;;37.89;27.10
53874;BME280;62246;50.938;4.058;2022-08-03T12:39:01;101499.91;;;39.77;24.95
53874;BME280;62246;50.938;4.058;2022-08-03T12:43:54;101514.72;;;38.84;25.00
53874;BME280;62246;50.938;4.058;2022-08-03T12:46:19;101501.50;;;39.83;23.80
53874;BME280;62246;50.938;4.058;2022-08-03T12:48:58;101504.03;;;39.02;24.51
53874;BME280;62246;50.938;4.058;2022-08-03T12:51:24;101510.03;;;38.45;25.26
53874;BME280;62246;50.938;4.058;2022-08-03T12:53:56;101502.72;;;42.11;21.68
53874;BME280;62246;50.938;4.058;2022-08-03T12:56:22;101504.44;;;42.07;21.88
53874;BME280;62246;50.938;4.058;2022-08-03T12:58:47;101499.13;;;43.51;20.65
53874;BME280;62246;50.938;4.058;2022-08-03T13:01:15;101502.38;;;40.74;21.87
53874;BME280;62246;50.938;4.058;2022-08-03T13:03:44;101492.97;;;40.56;21.99
53874;BME280;62246;50.938;4.058;2022-08-03T13:06:12;101491.00;;;44.16;19.47
53874;BME280;62246;50.938;4.058;2022-08-03T13:08:39;101486.31;;;41.73;21.59
53874;BME280;62246;50.938;4.058;2022-08-03T13:13:46;101489.16;;;40.52;22.59
53874;BME280;62246;50.938;4.058;2022-08-03T13:16:12;101484.53;;;38.53;24.48
53874;BME280;62246;50.938;4.058;2022-08-03T13:18:37;101480.66;;;35.94;28.10
53874;BME280;62246;50.938;4.058;2022-08-03T13:21:03;101466.94;;;34.33;30.14
53874;BME280;62246;50.938;4.058;2022-08-03T13:23:29;101469.94;;;34.10;31.68
53874;BME280;62246;50.938;4.058;2022-08-03T13:25:55;101463.19;;;35.20;29.87
53874;BME280;62246;50.938;4.058;2022-08-03T13:28:20;101455.31;;;41.66;22.73
53874;BME280;62246;50.938;4.058;2022-08-03T13:30:46;101463.38;;;42.04;21.30
53874;BME280;62246;50.938;4.058;2022-08-03T13:33:11;101460.63;;;36.66;26.40
53874;BME280;62246;50.938;4.058;2022-08-03T13:35:37;101468.00;;;34.32;30.17
53874;BME280;62246;50.938;4.058;2022-08-03T13:38:02;101457.75;;;38.48;26.11
53874;BME280;62246;50.938;4.058;2022-08-03T13:40:28;101459.38;;;41.96;21.84